createdAt,value
2023-04-24T00:00:32.213Z,100.00
2023-04-24T00:03:22.288Z,100.00
2023-04-24T00:05:49.365Z,100.00
2023-04-24T00:08:16.835Z,100.00
2023-04-24T00:10:43.984Z,100.00
2023-04-24T00:13:11.196Z,100.00
2023-04-24T00:15:38.320Z,100.00
2023-04-24T00:18:05.720Z,100.00
2023-04-24T00:20:36.734Z,100.00
2023-04-24T00:23:04.208Z,100.00
2023-04-24T00:25:31.063Z,100.00
2023-04-24T00:27:58.317Z,100.00
2023-04-24T00:30:25.259Z,100.00
2023-04-24T00:32:54.821Z,100.00
2023-04-24T00:35:24.452Z,100.00
2023-04-24T00:37:54.063Z,100.00
2023-04-24T00:40:23.714Z,100.00
2023-04-24T00:42:51.143Z,100.00
2023-04-24T00:45:18.238Z,100.00
2023-04-24T00:47:46.760Z,100.00
2023-04-24T00:50:15.668Z,100.00
2023-04-24T00:52:43.069Z,100.00
2023-04-24T00:55:10.522Z,100.00
2023-04-24T00:57:38.484Z,100.00
2023-04-24T01:00:06.979Z,100.00
2023-04-24T01:02:35.839Z,100.00
2023-04-24T01:05:03.155Z,100.00
2023-04-24T01:07:33.265Z,100.00
2023-04-24T01:10:02.008Z,100.00
2023-04-24T01:12:29.737Z,100.00
2023-04-24T01:14:57.900Z,100.00
2023-04-24T01:17:25.202Z,100.00
2023-04-24T01:19:58.267Z,100.00
2023-04-24T01:22:25.516Z,100.00
2023-04-24T01:24:57.354Z,100.00
2023-04-24T01:27:24.640Z,100.00
2023-04-24T01:29:52.996Z,100.00
2023-04-24T01:32:20.997Z,100.00
2023-04-24T01:34:48.145Z,100.00
2023-04-24T01:37:17.841Z,100.00
2023-04-24T01:39:47.818Z,100.00
2023-04-24T01:42:15.938Z,100.00
2023-04-24T01:44:43.706Z,100.00
2023-04-24T01:47:14.134Z,100.00
2023-04-24T01:49:41.678Z,100.00
2023-04-24T01:52:09.175Z,100.00
2023-04-24T01:54:41.024Z,100.00
2023-04-24T01:57:08.489Z,100.00
2023-04-24T01:59:38.134Z,100.00
2023-04-24T02:02:05.436Z,100.00
2023-04-24T02:04:32.630Z,100.00
2023-04-24T02:07:00.082Z,100.00
2023-04-24T02:09:27.002Z,100.00
2023-04-24T02:11:57.479Z,100.00
2023-04-24T02:14:24.749Z,100.00
2023-04-24T02:16:54.545Z,100.00
2023-04-24T02:19:21.466Z,100.00
2023-04-24T02:21:51.725Z,100.00
2023-04-24T02:24:21.089Z,100.00
2023-04-24T02:26:51.452Z,100.00
2023-04-24T02:29:19.057Z,100.00
2023-04-24T02:31:46.396Z,100.00
2023-04-24T02:34:15.168Z,100.00
2023-04-24T02:36:42.536Z,100.00
2023-04-24T02:39:09.496Z,100.00
2023-04-24T02:41:36.753Z,100.00
2023-04-24T02:44:03.603Z,100.00
2023-04-24T02:46:33.931Z,100.00
2023-04-24T02:49:01.273Z,100.00
2023-04-24T02:51:28.455Z,100.00
2023-04-24T02:53:57.832Z,100.00
2023-04-24T02:56:28.407Z,100.00
2023-04-24T02:58:57.498Z,100.00
2023-04-24T03:01:27.260Z,100.00
2023-04-24T03:03:57.014Z,100.00
2023-04-24T03:06:24.450Z,100.00
2023-04-24T03:08:53.692Z,100.00
2023-04-24T03:11:26.295Z,100.00
2023-04-24T03:13:53.412Z,100.00
2023-04-24T03:16:25.498Z,100.00
2023-04-24T03:18:58.051Z,100.00
2023-04-24T03:21:28.452Z,100.00
2023-04-24T03:23:55.860Z,100.00
2023-04-24T03:26:26.073Z,100.00
2023-04-24T03:29:04.726Z,100.00
2023-04-24T03:31:32.016Z,100.00
2023-04-24T03:33:59.004Z,100.00
2023-04-24T03:36:27.170Z,100.00
2023-04-24T03:39:00.257Z,100.00
2023-04-24T03:41:31.318Z,100.00
2023-04-24T03:44:24.381Z,100.00
2023-04-24T03:46:54.604Z,100.00
2023-04-24T03:49:26.887Z,100.00
2023-04-24T03:51:54.409Z,100.00
2023-04-24T03:54:24.146Z,100.00
2023-04-24T03:56:52.990Z,100.00
2023-04-24T03:59:23.392Z,100.00
2023-04-24T04:02:05.658Z,100.00
2023-04-24T04:04:33.063Z,100.00
2023-04-24T04:07:03.748Z,100.00
2023-04-24T04:09:31.364Z,100.00
2023-04-24T04:11:58.525Z,100.00
2023-04-24T04:14:25.485Z,100.00
2023-04-24T04:16:54.827Z,100.00
2023-04-24T04:19:22.348Z,100.00
2023-04-24T04:21:54.584Z,100.00
2023-04-24T04:24:39.171Z,100.00
2023-04-24T04:27:07.409Z,100.00
2023-04-24T04:29:42.241Z,100.00
2023-04-24T04:32:12.097Z,100.00
2023-04-24T04:34:39.161Z,100.00
2023-04-24T04:37:07.686Z,100.00
2023-04-24T04:39:49.747Z,100.00
2023-04-24T04:42:24.736Z,100.00
2023-04-24T04:44:52.203Z,100.00
2023-04-24T04:47:24.858Z,100.00
2023-04-24T04:49:54.084Z,100.00
2023-04-24T04:52:26.869Z,100.00
2023-04-24T04:55:06.555Z,100.00
2023-04-24T04:57:54.009Z,100.00
2023-04-24T05:00:25.503Z,100.00
2023-04-24T05:02:54.292Z,100.00
2023-04-24T05:05:21.660Z,100.00
2023-04-24T05:07:49.922Z,100.00
2023-04-24T05:10:17.028Z,100.00
2023-04-24T05:12:46.270Z,100.00
2023-04-24T05:15:13.449Z,100.00
2023-04-24T05:17:41.673Z,100.00
2023-04-24T05:20:10.866Z,100.00
2023-04-24T05:22:38.966Z,100.00
2023-04-24T05:25:06.864Z,100.00
2023-04-24T05:27:57.391Z,100.00
2023-04-24T05:30:24.291Z,100.00
2023-04-24T05:32:51.615Z,100.00
2023-04-24T05:35:19.828Z,100.00
2023-04-24T05:37:47.358Z,100.00
2023-04-24T05:40:17.396Z,100.00
2023-04-24T05:42:46.891Z,100.00
2023-04-24T05:45:17.842Z,100.00
2023-04-24T05:47:45.230Z,100.00
2023-04-24T05:50:12.416Z,100.00
2023-04-24T05:52:39.680Z,100.00
2023-04-24T05:55:19.577Z,100.00
2023-04-24T05:57:48.258Z,100.00
2023-04-24T06:00:15.592Z,100.00
2023-04-24T06:02:50.336Z,100.00
2023-04-24T06:05:17.574Z,100.00
2023-04-24T06:07:47.273Z,100.00
2023-04-24T06:10:14.244Z,100.00
2023-04-24T06:12:44.461Z,100.00
2023-04-24T06:15:19.094Z,100.00
2023-04-24T06:17:52.937Z,100.00
2023-04-24T06:20:21.373Z,100.00
2023-04-24T06:22:49.059Z,100.00
2023-04-24T06:25:16.222Z,100.00
2023-04-24T06:27:44.400Z,100.00
2023-04-24T06:30:11.573Z,100.00
2023-04-24T06:32:39.450Z,100.00
2023-04-24T06:35:08.515Z,100.00
2023-04-24T06:37:35.774Z,100.00
2023-04-24T06:40:03.087Z,100.00
2023-04-24T06:42:30.677Z,100.00
2023-04-24T06:44:57.562Z,100.00
2023-04-24T06:47:25.153Z,100.00
2023-04-24T06:49:53.610Z,100.00
2023-04-24T06:52:20.970Z,100.00
2023-04-24T06:54:48.043Z,100.00
2023-04-24T06:57:17.093Z,100.00
2023-04-24T06:59:44.269Z,100.00
2023-04-24T07:02:11.781Z,98.70
2023-04-24T07:04:41.538Z,88.15
2023-04-24T07:07:10.562Z,71.44
2023-04-24T07:09:43.479Z,66.57
2023-04-24T07:12:14.479Z,66.89
2023-04-24T07:14:41.796Z,69.21
2023-04-24T07:17:09.067Z,64.98
2023-04-24T07:19:38.705Z,68.75
2023-04-24T07:22:06.160Z,75.09
2023-04-24T07:24:33.785Z,80.50
2023-04-24T07:27:07.503Z,82.83
2023-04-24T07:29:34.690Z,89.22
2023-04-24T07:32:04.088Z,92.80
2023-04-24T07:34:31.416Z,94.98
2023-04-24T07:36:58.786Z,98.13
2023-04-24T07:39:25.879Z,99.05
2023-04-24T07:41:53.203Z,100.00
2023-04-24T07:44:22.309Z,99.14
2023-04-24T07:46:49.536Z,98.07
2023-04-24T07:49:18.505Z,100.00
2023-04-24T07:51:47.339Z,100.00
2023-04-24T07:54:14.247Z,100.00
2023-04-24T07:56:43.080Z,100.00
2023-04-24T07:59:11.108Z,100.00
2023-04-24T08:01:38.573Z,100.00
2023-04-24T08:04:08.084Z,100.00
2023-04-24T08:06:35.768Z,100.00
2023-04-24T08:09:05.062Z,100.00
2023-04-24T08:11:33.046Z,100.00
2023-04-24T08:13:59.938Z,100.00
2023-04-24T08:16:29.792Z,100.00
2023-04-24T08:18:56.744Z,100.00
2023-04-24T08:21:24.399Z,100.00
2023-04-24T08:23:54.231Z,100.00
2023-04-24T08:26:21.713Z,100.00
2023-04-24T08:28:48.625Z,100.00
2023-04-24T08:31:15.769Z,100.00
2023-04-24T08:33:42.647Z,100.00
2023-04-24T08:36:09.887Z,100.00
2023-04-24T08:38:37.196Z,100.00
2023-04-24T08:41:05.634Z,100.00
2023-04-24T08:43:34.130Z,100.00
2023-04-24T08:46:01.876Z,100.00
2023-04-24T08:48:31.825Z,100.00
2023-04-24T08:51:00.307Z,100.00
2023-04-24T08:53:29.976Z,100.00
2023-04-24T08:55:57.850Z,100.00
2023-04-24T08:58:28.280Z,100.00
2023-04-24T09:00:56.040Z,100.00
2023-04-24T09:03:27.476Z,100.00
2023-04-24T09:05:56.305Z,100.00
2023-04-24T09:08:27.718Z,100.00
2023-04-24T09:10:55.394Z,100.00
2023-04-24T09:13:22.426Z,100.00
2023-04-24T09:15:49.915Z,100.00
2023-04-24T09:18:16.899Z,100.00
2023-04-24T09:21:02.981Z,100.00
2023-04-24T09:23:30.880Z,100.00
2023-04-24T09:25:59.361Z,100.00
2023-04-24T09:28:27.113Z,100.00
2023-04-24T09:31:06.628Z,100.00
2023-04-24T09:33:34.204Z,100.00
2023-04-24T09:36:01.586Z,100.00
2023-04-24T09:38:32.454Z,100.00
2023-04-24T09:41:04.625Z,100.00
2023-04-24T09:43:34.367Z,100.00
2023-04-24T09:46:05.635Z,100.00
2023-04-24T09:48:33.388Z,100.00
2023-04-24T09:51:02.536Z,100.00
2023-04-24T09:53:30.663Z,100.00
2023-04-24T09:56:08.435Z,100.00
2023-04-24T09:58:36.856Z,100.00
2023-04-24T10:01:04.505Z,100.00
2023-04-24T10:03:32.345Z,100.00
2023-04-24T10:06:00.401Z,100.00
2023-04-24T10:08:27.792Z,100.00
2023-04-24T10:10:57.356Z,100.00
2023-04-24T10:13:24.227Z,100.00
2023-04-24T10:15:51.807Z,100.00
2023-04-24T10:18:19.004Z,100.00
2023-04-24T10:20:46.573Z,100.00
2023-04-24T10:23:13.733Z,100.00
2023-04-24T10:25:43.368Z,100.00
2023-04-24T10:28:11.342Z,100.00
2023-04-24T10:30:40.165Z,100.00
2023-04-24T10:33:08.929Z,100.00
2023-04-24T10:35:38.749Z,100.00
2023-04-24T10:38:16.848Z,100.00
2023-04-24T10:40:45.199Z,100.00
2023-04-24T10:43:17.440Z,100.00
2023-04-24T10:46:03.964Z,100.00
2023-04-24T10:48:31.134Z,100.00
2023-04-24T10:50:58.289Z,100.00
2023-04-24T10:53:29.152Z,100.00
2023-04-24T10:55:59.418Z,100.00
2023-04-24T10:58:36.665Z,100.00
2023-04-24T11:01:06.360Z,100.00
2023-04-24T11:03:35.046Z,100.00
2023-04-24T11:06:04.051Z,100.00
2023-04-24T11:08:32.356Z,100.00
2023-04-24T11:10:59.620Z,100.00
2023-04-24T11:13:27.282Z,100.00
2023-04-24T11:16:13.750Z,100.00
2023-04-24T11:18:46.803Z,100.00
2023-04-24T11:21:14.123Z,100.00
2023-04-24T11:23:42.058Z,100.00
2023-04-24T11:26:20.917Z,100.00
2023-04-24T11:28:48.384Z,100.00
2023-04-24T11:31:38.762Z,100.00
2023-04-24T11:34:09.771Z,100.00
2023-04-24T11:36:37.430Z,100.00
2023-04-24T11:39:04.692Z,100.00
2023-04-24T11:41:32.005Z,100.00
2023-04-24T11:43:58.930Z,100.00
2023-04-24T11:46:31.087Z,100.00
2023-04-24T11:48:58.488Z,100.00
2023-04-24T11:51:33.863Z,100.00
2023-04-24T11:54:08.845Z,100.00
2023-04-24T11:56:36.371Z,100.00
2023-04-24T11:59:05.531Z,100.00
2023-04-24T12:01:43.457Z,100.00
2023-04-24T12:04:10.648Z,100.00
2023-04-24T12:06:38.442Z,100.00
2023-04-24T12:09:17.422Z,100.00
2023-04-24T12:11:58.949Z,100.00
2023-04-24T12:14:26.324Z,100.00
2023-04-24T12:16:53.775Z,100.00
2023-04-24T12:19:24.144Z,100.00
2023-04-24T12:22:06.626Z,100.00
2023-04-24T12:24:36.047Z,100.00
2023-04-24T12:27:05.929Z,100.00
2023-04-24T12:29:33.179Z,100.00
2023-04-24T12:32:00.546Z,100.00
2023-04-24T12:34:27.546Z,100.00
2023-04-24T12:36:54.889Z,100.00
2023-04-24T12:39:24.644Z,100.00
2023-04-24T12:42:01.052Z,100.00
2023-04-24T12:44:35.716Z,100.00
2023-04-24T12:47:02.984Z,100.00
2023-04-24T12:49:33.069Z,100.00
2023-04-24T12:52:02.614Z,100.00
2023-04-24T12:54:33.510Z,100.00
2023-04-24T12:57:01.372Z,100.00
2023-04-24T12:59:30.627Z,100.00
2023-04-24T13:01:59.451Z,100.00
2023-04-24T13:04:26.444Z,100.00
2023-04-24T13:06:55.967Z,100.00
2023-04-24T13:09:22.904Z,100.00
2023-04-24T13:11:50.381Z,100.00
2023-04-24T13:14:20.056Z,100.00
2023-04-24T13:16:47.388Z,100.00
2023-04-24T13:19:14.294Z,100.00
2023-04-24T13:21:41.772Z,100.00
2023-04-24T13:24:08.969Z,100.00
2023-04-24T13:26:38.611Z,100.00
2023-04-24T13:29:05.764Z,100.00
2023-04-24T13:31:33.217Z,100.00
2023-04-24T13:34:06.297Z,100.00
2023-04-24T13:36:33.799Z,100.00
2023-04-24T13:39:05.644Z,100.00
2023-04-24T13:41:34.322Z,100.00
2023-04-24T13:44:01.241Z,100.00
2023-04-24T13:46:30.866Z,100.00
2023-04-24T13:49:00.493Z,100.00
2023-04-24T13:51:30.557Z,100.00
2023-04-24T13:53:57.486Z,100.00
2023-04-24T13:56:24.739Z,100.00
2023-04-24T13:58:53.234Z,100.00
2023-04-24T14:01:25.850Z,100.00
2023-04-24T14:03:53.785Z,100.00
2023-04-24T14:06:21.326Z,100.00
2023-04-24T14:08:48.728Z,100.00
2023-04-24T14:11:18.603Z,100.00
2023-04-24T14:13:46.366Z,100.00
2023-04-24T14:16:14.109Z,100.00
2023-04-24T14:18:41.241Z,100.00
2023-04-24T14:21:08.900Z,100.00
2023-04-24T14:23:38.380Z,100.00
2023-04-24T14:26:05.886Z,100.00
2023-04-24T14:28:33.483Z,100.00
2023-04-24T14:31:00.734Z,100.00
2023-04-24T14:33:27.576Z,100.00
2023-04-24T14:35:55.132Z,100.00
2023-04-24T14:38:22.977Z,100.00
2023-04-24T14:41:05.702Z,100.00
2023-04-24T14:43:36.428Z,100.00
2023-04-24T14:46:04.324Z,100.00
2023-04-24T14:48:31.641Z,100.00
2023-04-24T14:50:59.553Z,100.00
2023-04-24T14:53:26.506Z,100.00
2023-04-24T14:55:54.598Z,100.00
2023-04-24T14:58:21.594Z,100.00
2023-04-24T15:00:51.106Z,100.00
2023-04-24T15:03:18.750Z,100.00
2023-04-24T15:05:46.280Z,100.00
2023-04-24T15:08:13.189Z,100.00
2023-04-24T15:10:40.488Z,100.00
2023-04-24T15:13:07.402Z,100.00
2023-04-24T15:15:34.595Z,100.00
2023-04-24T15:18:01.609Z,100.00
2023-04-24T15:20:28.874Z,100.00
2023-04-24T15:22:55.916Z,100.00
2023-04-24T15:25:23.309Z,100.00
2023-04-24T15:27:50.232Z,100.00
2023-04-24T15:30:20.250Z,100.00
2023-04-24T15:32:47.234Z,100.00
2023-04-24T15:35:14.513Z,100.00
2023-04-24T15:37:41.570Z,100.00
2023-04-24T15:40:09.524Z,100.00
2023-04-24T15:42:36.549Z,100.00
2023-04-24T15:45:04.562Z,100.00
2023-04-24T15:47:32.966Z,100.00
2023-04-24T15:50:00.207Z,100.00
2023-04-24T15:52:27.236Z,100.00
2023-04-24T15:54:54.916Z,100.00
2023-04-24T15:57:21.941Z,100.00
2023-04-24T15:59:50.529Z,100.00
2023-04-24T16:02:21.147Z,100.00
2023-04-24T16:04:49.788Z,100.00
2023-04-24T16:07:18.368Z,100.00
2023-04-24T16:09:45.824Z,100.00
2023-04-24T16:12:13.778Z,100.00
2023-04-24T16:14:41.657Z,100.00
2023-04-24T16:17:08.841Z,100.00
2023-04-24T16:19:39.091Z,100.00
2023-04-24T16:22:06.532Z,100.00
2023-04-24T16:24:35.415Z,100.00
2023-04-24T16:27:03.292Z,100.00
2023-04-24T16:29:31.178Z,100.00
2023-04-24T16:31:58.204Z,100.00
2023-04-24T16:34:25.648Z,100.00
2023-04-24T16:36:55.270Z,100.00
2023-04-24T16:39:22.932Z,100.00
2023-04-24T16:41:49.874Z,100.00
2023-04-24T16:44:17.148Z,100.00
2023-04-24T16:46:44.166Z,100.00
2023-04-24T16:49:11.444Z,100.00
2023-04-24T16:51:38.540Z,100.00
2023-04-24T16:54:06.054Z,100.00
2023-04-24T16:56:33.281Z,100.00
2023-04-24T16:59:00.723Z,100.00
2023-04-24T17:01:28.835Z,100.00
2023-04-24T17:04:00.765Z,100.00
2023-04-24T17:06:28.815Z,100.00
2023-04-24T17:08:56.203Z,100.00
2023-04-24T17:11:23.275Z,100.00
2023-04-24T17:13:51.512Z,100.00
2023-04-24T17:16:18.512Z,100.00
2023-04-24T17:18:46.217Z,100.00
2023-04-24T17:21:13.237Z,100.00
2023-04-24T17:23:43.248Z,100.00
2023-04-24T17:26:12.751Z,100.00
2023-04-24T17:28:40.500Z,100.00
2023-04-24T17:31:08.101Z,100.00
2023-04-24T17:33:36.313Z,100.00
2023-04-24T17:36:07.769Z,100.00
2023-04-24T17:38:36.079Z,100.00
2023-04-24T17:41:04.129Z,100.00
2023-04-24T17:43:33.074Z,100.00
2023-04-24T17:46:01.638Z,100.00
2023-04-24T17:48:29.470Z,100.00
2023-04-24T17:50:57.171Z,100.00
2023-04-24T17:53:25.917Z,100.00
2023-04-24T17:55:54.760Z,100.00
2023-04-24T17:58:22.737Z,100.00
2023-04-24T18:00:50.788Z,100.00
2023-04-24T18:03:21.007Z,100.00
2023-04-24T18:05:48.268Z,100.00
2023-04-24T18:08:16.247Z,100.00
2023-04-24T18:10:44.980Z,100.00
2023-04-24T18:13:12.503Z,100.00
2023-04-24T18:15:43.838Z,100.00
2023-04-24T18:18:15.579Z,100.00
2023-04-24T18:20:46.868Z,100.00
2023-04-24T18:23:14.629Z,100.00
2023-04-24T18:25:45.000Z,100.00
2023-04-24T18:28:13.037Z,100.00
2023-04-24T18:30:41.116Z,100.00
2023-04-24T18:33:08.609Z,100.00
2023-04-24T18:35:35.834Z,100.00
2023-04-24T18:38:07.620Z,100.00
2023-04-24T18:40:35.371Z,100.00
2023-04-24T18:43:02.954Z,100.00
2023-04-24T18:45:32.444Z,100.00
2023-04-24T18:48:00.226Z,100.00
2023-04-24T18:50:29.976Z,100.00
2023-04-24T18:52:59.347Z,100.00
2023-04-24T18:55:28.144Z,100.00
2023-04-24T18:57:55.809Z,100.00
2023-04-24T19:00:23.610Z,100.00
2023-04-24T19:02:53.595Z,100.00
2023-04-24T19:05:21.063Z,100.00
2023-04-24T19:07:49.335Z,100.00
2023-04-24T19:10:17.459Z,100.00
2023-04-24T19:12:45.634Z,100.00
2023-04-24T19:15:13.159Z,100.00
2023-04-24T19:17:41.260Z,100.00
2023-04-24T19:20:09.102Z,100.00
2023-04-24T19:22:39.569Z,100.00
2023-04-24T19:25:11.769Z,100.00
2023-04-24T19:27:40.177Z,100.00
2023-04-24T19:30:08.462Z,100.00
2023-04-24T19:32:36.332Z,100.00
2023-04-24T19:35:06.476Z,100.00
2023-04-24T19:37:37.151Z,100.00
2023-04-24T19:40:05.000Z,100.00
2023-04-24T19:42:43.409Z,100.00
2023-04-24T19:45:15.158Z,100.00
2023-04-24T19:47:43.768Z,100.00
2023-04-24T19:50:15.721Z,100.00
2023-04-24T19:52:46.456Z,100.00
2023-04-24T19:55:14.324Z,100.00
2023-04-24T19:57:42.708Z,100.00
2023-04-24T20:00:10.249Z,100.00
2023-04-24T20:02:38.172Z,100.00
2023-04-24T20:05:05.863Z,100.00
2023-04-24T20:07:36.651Z,100.00
2023-04-24T20:10:06.039Z,100.00
2023-04-24T20:12:34.552Z,100.00
2023-04-24T20:15:02.529Z,100.00
2023-04-24T20:17:33.379Z,100.00
2023-04-24T20:20:00.536Z,100.00
2023-04-24T20:22:28.049Z,100.00
2023-04-24T20:24:55.039Z,100.00
2023-04-24T20:27:22.757Z,100.00
2023-04-24T20:29:52.189Z,100.00
2023-04-24T20:32:21.966Z,100.00
2023-04-24T20:34:48.980Z,100.00
2023-04-24T20:37:16.457Z,100.00
2023-04-24T20:39:44.931Z,100.00
2023-04-24T20:42:13.382Z,100.00
2023-04-24T20:44:41.595Z,100.00
2023-04-24T20:47:11.397Z,100.00
2023-04-24T20:49:38.292Z,100.00
2023-04-24T20:52:06.527Z,100.00
2023-04-24T20:54:33.676Z,100.00
2023-04-24T20:57:01.965Z,100.00
2023-04-24T20:59:28.835Z,100.00
2023-04-24T21:01:56.155Z,100.00
2023-04-24T21:04:23.112Z,100.00
2023-04-24T21:06:50.762Z,100.00
2023-04-24T21:09:17.841Z,100.00
2023-04-24T21:11:45.079Z,100.00
2023-04-24T21:14:12.000Z,100.00
2023-04-24T21:16:39.304Z,100.00
2023-04-24T21:19:06.156Z,100.00
2023-04-24T21:21:34.130Z,100.00
2023-04-24T21:24:01.791Z,100.00
2023-04-24T21:26:29.001Z,100.00
2023-04-24T21:28:56.056Z,100.00
2023-04-24T21:31:23.285Z,100.00
2023-04-24T21:33:50.442Z,100.00
2023-04-24T21:36:17.741Z,100.00
2023-04-24T21:38:44.675Z,100.00
2023-04-24T21:41:11.926Z,100.00
2023-04-24T21:43:44.697Z,100.00
2023-04-24T21:46:14.780Z,100.00
2023-04-24T21:48:44.149Z,100.00
2023-04-24T21:51:14.531Z,100.00
2023-04-24T21:53:41.554Z,100.00
2023-04-24T21:56:09.198Z,100.00
2023-04-24T21:58:36.540Z,100.00
2023-04-24T22:01:03.907Z,100.00
2023-04-24T22:03:31.036Z,100.00
2023-04-24T22:05:58.549Z,100.00
2023-04-24T22:08:25.629Z,100.00
2023-04-24T22:10:53.504Z,100.00
2023-04-24T22:13:22.764Z,100.00
2023-04-24T22:15:52.846Z,100.00
2023-04-24T22:18:19.836Z,100.00
2023-04-24T22:20:47.344Z,100.00
2023-04-24T22:23:14.467Z,100.00
2023-04-24T22:25:41.727Z,100.00
2023-04-24T22:28:08.553Z,100.00
2023-04-24T22:30:35.829Z,100.00
2023-04-24T22:33:03.029Z,100.00
2023-04-24T22:35:30.319Z,100.00
2023-04-24T22:37:57.320Z,100.00
2023-04-24T22:40:25.447Z,100.00
2023-04-24T22:42:52.843Z,100.00
2023-04-24T22:45:23.669Z,100.00
2023-04-24T22:47:50.931Z,100.00
2023-04-24T22:50:20.957Z,100.00
2023-04-24T22:52:48.142Z,100.00
2023-04-24T22:55:15.343Z,100.00
2023-04-24T22:57:42.388Z,100.00
2023-04-24T23:00:11.471Z,100.00
2023-04-24T23:02:42.209Z,100.00
2023-04-24T23:05:10.403Z,100.00
2023-04-24T23:07:39.465Z,100.00
2023-04-24T23:10:07.029Z,100.00
2023-04-24T23:12:33.928Z,100.00
2023-04-24T23:15:01.418Z,100.00
2023-04-24T23:17:28.389Z,100.00
2023-04-24T23:19:58.042Z,100.00
2023-04-24T23:22:24.891Z,100.00
2023-04-24T23:24:52.073Z,100.00
2023-04-24T23:27:18.955Z,100.00
2023-04-24T23:29:48.534Z,100.00
2023-04-24T23:32:15.700Z,100.00
2023-04-24T23:34:45.799Z,100.00
2023-04-24T23:37:12.733Z,100.00
2023-04-24T23:39:39.900Z,100.00
2023-04-24T23:42:07.801Z,100.00
2023-04-24T23:44:35.374Z,100.00
2023-04-24T23:47:02.236Z,100.00
2023-04-24T23:49:29.439Z,100.00
2023-04-24T23:51:56.589Z,100.00
2023-04-24T23:54:26.473Z,100.00
2023-04-24T23:56:53.388Z,100.00
2023-04-24T23:59:21.631Z,100.00
